Time;durP1;ratioP1;P1;durP2;ratioP2;P2;SDS_P1;SDS_P2;PMS_P1;PMS_P2;Temp;Humidity;BMP_temperature;BMP_pressure;BME280_temperature;BME280_humidity;BME280_pressure;Samples;Min_cycle;Max_cycle;Signal;HPM_P1;HPM_P2
2023/04/01 00:00:55;;;;;;;2.70;1.30;;;8.50;99.90;;;;;;5016750;28;20185;-88
2023/04/01 00:03:22;;;;;;;5.70;3.20;;;8.50;99.90;;;;;;5033446;28;20189;-88
2023/04/01 00:05:49;;;;;;;3.97;2.43;;;8.50;99.90;;;;;;5016699;28;20289;-88
2023/04/01 00:08:15;;;;;;;5.00;2.87;;;8.50;99.90;;;;;;5016603;28;20198;-88
2023/04/01 00:10:41;;;;;;;6.27;2.00;;;8.50;99.90;;;;;;5012583;28;20178;-88
2023/04/01 00:13:07;;;;;;;4.03;1.60;;;8.40;99.90;;;;;;5009971;28;20179;-88
2023/04/01 00:15:34;;;;;;;4.40;1.40;;;8.50;99.90;;;;;;5015764;28;20225;-88
2023/04/01 00:18:00;;;;;;;2.70;1.33;;;8.50;99.90;;;;;;5000342;28;20187;-88
2023/04/01 00:20:27;;;;;;;3.00;1.20;;;8.50;99.90;;;;;;5000486;28;20167;-88
2023/04/01 00:22:52;;;;;;;3.10;1.10;;;8.50;99.90;;;;;;5016398;28;20201;-88
2023/04/01 00:25:19;;;;;;;4.50;1.03;;;8.50;99.90;;;;;;5016253;28;20198;-88
2023/04/01 00:27:45;;;;;;;1.03;0.80;;;8.50;99.90;;;;;;5000211;28;20210;-88
2023/04/01 00:30:11;;;;;;;3.47;1.00;;;8.50;99.90;;;;;;5000400;28;20170;-88
2023/04/01 00:32:37;;;;;;;1.87;0.67;;;8.50;99.90;;;;;;5016172;28;20185;-88
2023/04/01 00:35:03;;;;;;;2.23;0.80;;;8.50;99.90;;;;;;4999685;28;20220;-88
2023/04/01 00:37:30;;;;;;;2.20;0.87;;;8.50;99.90;;;;;;4999960;28;20198;-88
2023/04/01 00:39:56;;;;;;;1.60;0.70;;;8.50;99.90;;;;;;5007729;28;20187;-88
2023/04/01 00:42:23;;;;;;;2.07;1.03;;;8.50;99.90;;;;;;4998324;28;20554;-87
2023/04/01 00:44:54;;;;;;;1.53;0.60;;;8.50;99.90;;;;;;4996351;28;20186;-88
2023/04/01 00:47:22;;;;;;;1.93;0.80;;;8.50;99.90;;;;;;5005041;28;20221;-88
2023/04/01 00:49:51;;;;;;;0.80;0.80;;;8.50;99.90;;;;;;5008993;28;20175;-88
2023/04/01 00:52:23;;;;;;;2.40;0.80;;;8.40;99.90;;;;;;5015951;28;20182;-87
2023/04/01 00:54:56;;;;;;;3.03;1.00;;;8.40;99.90;;;;;;5015624;28;20252;-87
2023/04/01 00:57:32;;;;;;;2.80;1.10;;;8.40;99.90;;;;;;5001482;28;20179;-87
2023/04/01 00:59:59;;;;;;;4.03;1.00;;;8.40;99.90;;;;;;5016876;28;20174;-86
2023/04/01 01:02:25;;;;;;;4.00;0.70;;;8.40;99.90;;;;;;5000035;28;20233;-87
2023/04/01 01:04:52;;;;;;;1.37;0.70;;;8.40;99.90;;;;;;5017084;28;20240;-87
2023/04/01 01:07:38;;;;;;;2.87;0.87;;;8.50;99.90;;;;;;5000367;28;20233;-87
2023/04/01 01:10:10;;;;;;;3.07;1.00;;;8.40;99.90;;;;;;5000019;28;20178;-87
2023/04/01 01:12:51;;;;;;;1.57;0.80;;;8.50;99.90;;;;;;4980805;28;20197;-86
2023/04/01 01:15:19;;;;;;;4.37;0.80;;;8.50;99.90;;;;;;5013561;28;20225;-87
2023/04/01 01:17:58;;;;;;;1.63;0.60;;;8.50;99.90;;;;;;4999788;28;20167;-87
2023/04/01 01:21:01;;;;;;;2.23;0.67;;;8.50;99.90;;;;;;5016215;28;20167;-86
2023/04/01 01:23:39;;;;;;;1.80;0.50;;;8.50;99.90;;;;;;4999753;28;20194;-86
2023/04/01 01:26:42;;;;;;;0.93;0.53;;;8.50;99.90;;;;;;5015813;28;20206;-87
2023/04/01 01:29:30;;;;;;;1.20;0.60;;;8.50;99.90;;;;;;5015695;28;20236;-87
2023/04/01 01:32:25;;;;;;;0.77;0.60;;;8.50;99.90;;;;;;4999525;28;20174;-86
2023/04/01 01:35:18;;;;;;;0.63;0.50;;;8.50;99.90;;;;;;4997138;28;20182;-87
2023/04/01 01:37:46;;;;;;;2.07;0.80;;;8.50;99.90;;;;;;4999842;28;20186;-87
2023/04/01 01:40:15;;;;;;;1.13;0.60;;;8.40;99.90;;;;;;5008710;28;20241;-86
2023/04/01 01:42:50;;;;;;;1.73;0.40;;;8.40;99.90;;;;;;5016821;28;20175;-87
2023/04/01 01:45:19;;;;;;;0.40;0.40;;;8.40;99.90;;;;;;5015363;28;20201;-86
2023/04/01 01:47:47;;;;;;;2.03;0.50;;;8.40;99.90;;;;;;4999426;28;20202;-86
2023/04/01 01:50:15;;;;;;;0.40;0.40;;;8.40;99.90;;;;;;4999730;28;20280;-86
2023/04/01 01:52:41;;;;;;;0.33;0.33;;;8.30;99.90;;;;;;5015887;28;20231;-86
2023/04/01 01:55:36;;;;;;;1.67;0.50;;;8.30;99.90;;;;;;4999026;28;20283;-87
2023/04/01 01:58:11;;;;;;;0.90;0.43;;;8.40;99.90;;;;;;5015777;28;20182;-87
2023/04/01 02:00:43;;;;;;;0.43;0.43;;;8.30;99.90;;;;;;4999582;28;20174;-87
2023/04/01 02:03:11;;;;;;;0.67;0.50;;;8.30;99.90;;;;;;4999392;28;20174;-86
2023/04/01 02:05:38;;;;;;;0.30;0.30;;;8.30;99.90;;;;;;4998992;28;20205;-87
2023/04/01 02:08:13;;;;;;;1.37;0.50;;;8.30;99.90;;;;;;5015277;28;20290;-87
2023/04/01 02:10:44;;;;;;;0.60;0.60;;;8.30;99.90;;;;;;5016452;28;20210;-87
2023/04/01 02:13:21;;;;;;;3.30;0.50;;;8.30;99.90;;;;;;5009317;23;20233;-42
2023/04/01 02:15:50;;;;;;;0.73;0.50;;;8.20;99.90;;;;;;5009060;28;20183;-40
2023/04/01 02:18:18;;;;;;;1.20;0.60;;;8.20;99.90;;;;;;4984199;28;20235;-42
2023/04/01 02:20:45;;;;;;;2.50;0.70;;;8.20;99.90;;;;;;4980720;28;20183;-40
2023/04/01 02:23:12;;;;;;;0.70;0.43;;;8.20;99.90;;;;;;4993642;28;20190;-39
2023/04/01 02:25:41;;;;;;;0.50;0.50;;;8.20;99.90;;;;;;4992822;28;20180;-41
2023/04/01 02:28:08;;;;;;;0.57;0.47;;;8.20;99.90;;;;;;5009487;28;20219;-40
2023/04/01 02:30:37;;;;;;;1.00;0.43;;;8.20;99.90;;;;;;4958180;28;20179;-40
2023/04/01 02:33:05;;;;;;;0.73;0.60;;;8.30;99.90;;;;;;4980420;28;20178;-42
2023/04/01 02:35:33;;;;;;;1.53;0.60;;;8.30;99.90;;;;;;4992877;28;20712;-41
2023/04/01 02:38:01;;;;;;;2.00;0.63;;;8.20;99.90;;;;;;5009478;28;20345;-42
2023/04/01 02:40:26;;;;;;;0.97;0.60;;;8.20;99.90;;;;;;4991799;28;20183;-42
2023/04/01 02:42:52;;;;;;;2.23;0.50;;;8.20;99.90;;;;;;4997046;28;20187;-41
2023/04/01 02:45:18;;;;;;;0.73;0.30;;;8.20;99.90;;;;;;5012597;28;20178;-41
2023/04/01 02:47:45;;;;;;;2.03;0.80;;;8.20;99.90;;;;;;4996664;28;20289;-42
2023/04/01 02:50:11;;;;;;;0.40;0.40;;;8.10;99.90;;;;;;4985949;28;20677;-43
2023/04/01 02:52:37;;;;;;;2.27;0.60;;;8.10;99.90;;;;;;5007134;28;20174;-39
2023/04/01 02:55:04;;;;;;;1.33;0.83;;;8.10;99.90;;;;;;4984599;28;20242;-39
2023/04/01 02:57:31;;;;;;;0.57;0.40;;;8.00;99.90;;;;;;4996517;28;20232;-39
2023/04/01 02:59:57;;;;;;;0.40;0.40;;;8.00;99.90;;;;;;4996632;28;20175;-40
2023/04/01 03:02:22;;;;;;;0.67;0.50;;;7.90;99.90;;;;;;5012710;28;20183;-42
2023/04/01 03:04:48;;;;;;;1.23;0.60;;;7.90;99.90;;;;;;4984152;28;20167;-41
2023/04/01 03:07:14;;;;;;;0.93;0.50;;;7.90;99.90;;;;;;4977106;28;20211;-40
2023/04/01 03:09:40;;;;;;;0.47;0.40;;;7.80;99.90;;;;;;4996246;28;20644;-40
2023/04/01 03:12:06;;;;;;;1.70;1.60;;;7.80;99.90;;;;;;4980051;28;20195;-42
2023/04/01 03:14:43;;;;;;;1.23;0.50;;;7.80;99.90;;;;;;4982020;28;20183;-42
2023/04/01 03:17:09;;;;;;;0.43;0.43;;;7.70;99.90;;;;;;4996110;28;20199;-40
2023/04/01 03:19:35;;;;;;;0.57;0.40;;;7.70;99.90;;;;;;4997372;28;20578;-40
2023/04/01 03:22:05;;;;;;;0.60;0.40;;;7.60;99.90;;;;;;4981713;28;20183;-42
2023/04/01 03:24:31;;;;;;;0.30;0.30;;;7.60;99.90;;;;;;4996264;28;20184;-40
2023/04/01 03:26:56;;;;;;;0.33;0.33;;;7.60;99.90;;;;;;4992899;28;20183;-42
2023/04/01 03:29:22;;;;;;;0.30;0.30;;;7.50;99.90;;;;;;4993177;28;20259;-40
2023/04/01 03:31:49;;;;;;;0.57;0.33;;;7.50;99.90;;;;;;4977127;28;20201;-42
2023/04/01 03:34:14;;;;;;;0.40;0.40;;;7.50;99.90;;;;;;4995648;28;20493;-40
2023/04/01 03:36:41;;;;;;;0.50;0.50;;;7.50;99.90;;;;;;4995919;28;20175;-42
2023/04/01 03:39:07;;;;;;;1.03;0.50;;;7.50;99.90;;;;;;4994020;28;20190;-40
2023/04/01 03:41:40;;;;;;;0.80;0.63;;;7.50;99.90;;;;;;5003022;28;20189;-40
2023/04/01 03:44:06;;;;;;;1.00;0.40;;;7.50;99.90;;;;;;4992402;28;20183;-38
2023/04/01 03:46:32;;;;;;;1.10;0.60;;;7.40;99.90;;;;;;4996830;28;20240;-41
2023/04/01 03:48:58;;;;;;;0.90;0.90;;;7.50;99.90;;;;;;4993891;28;20687;-42
2023/04/01 03:51:24;;;;;;;0.93;0.60;;;7.50;99.90;;;;;;4988718;28;20229;-39
2023/04/01 03:53:50;;;;;;;0.70;0.50;;;7.50;99.90;;;;;;4992631;28;20203;-40
2023/04/01 03:56:16;;;;;;;1.47;0.60;;;7.50;99.90;;;;;;4995959;28;20189;-41
2023/04/01 03:58:42;;;;;;;1.60;0.60;;;7.50;99.90;;;;;;5011919;28;20195;-40
2023/04/01 04:01:20;;;;;;;1.17;0.67;;;7.50;99.90;;;;;;5012024;28;20186;-42
2023/04/01 04:03:49;;;;;;;0.67;0.50;;;7.50;99.90;;;;;;4992114;28;20187;-40
2023/04/01 04:06:16;;;;;;;1.70;0.50;;;7.40;99.90;;;;;;4994197;28;20524;-41
2023/04/01 04:08:44;;;;;;;0.40;0.40;;;7.40;99.90;;;;;;4994517;28;20225;-40
2023/04/01 04:11:10;;;;;;;2.17;0.70;;;7.40;99.90;;;;;;4987129;28;20194;-40
2023/04/01 04:13:39;;;;;;;1.03;0.53;;;7.40;99.90;;;;;;4991291;28;20180;-42
2023/04/01 04:16:06;;;;;;;0.97;0.50;;;7.30;99.90;;;;;;4992209;28;20205;-42
2023/04/01 04:18:34;;;;;;;2.10;0.50;;;7.30;99.90;;;;;;4994996;28;20199;-39
2023/04/01 04:21:00;;;;;;;1.23;0.60;;;7.30;99.90;;;;;;5011084;28;20281;-40
2023/04/01 04:23:26;;;;;;;1.13;0.47;;;7.30;99.90;;;;;;4991872;28;20272;-39
2023/04/01 04:26:03;;;;;;;0.40;0.40;;;7.20;99.90;;;;;;4994704;28;20190;-42
2023/04/01 04:28:32;;;;;;;0.60;0.60;;;7.20;99.90;;;;;;4996859;28;20202;-41
2023/04/01 04:30:59;;;;;;;1.53;0.50;;;7.20;99.90;;;;;;4986109;28;20179;-40
2023/04/01 04:33:27;;;;;;;1.97;0.77;;;7.20;99.90;;;;;;4999748;28;20193;-41
2023/04/01 04:35:58;;;;;;;0.67;0.57;;;7.20;99.90;;;;;;4984101;28;20262;-41
2023/04/01 04:38:25;;;;;;;1.40;0.70;;;7.30;99.90;;;;;;4993247;28;20222;-41
2023/04/01 04:40:51;;;;;;;1.03;0.73;;;7.30;99.90;;;;;;4983406;28;20175;-42
2023/04/01 04:43:18;;;;;;;3.40;0.80;;;7.30;99.90;;;;;;4991776;28;20183;-40
2023/04/01 04:45:44;;;;;;;1.67;0.80;;;7.30;99.90;;;;;;4999208;28;20186;-38
2023/04/01 04:48:18;;;;;;;1.07;0.67;;;7.30;99.90;;;;;;5010730;28;20253;-41
2023/04/01 04:50:50;;;;;;;2.40;0.73;;;7.30;99.90;;;;;;5009527;28;20268;-40
2023/04/01 04:53:19;;;;;;;2.20;1.03;;;7.40;99.90;;;;;;4984848;28;20188;-40
2023/04/01 04:55:47;;;;;;;0.83;0.73;;;7.30;99.90;;;;;;4982077;28;20178;-38
2023/04/01 04:58:42;;;;;;;3.27;1.43;;;7.40;99.90;;;;;;4987128;28;20288;-39
2023/04/01 05:01:15;;;;;;;6.03;2.53;;;7.40;99.90;;;;;;4993820;28;20194;-39
2023/04/01 05:03:41;;;;;;;6.30;3.23;;;7.50;99.90;;;;;;4993354;28;20183;-41
2023/04/01 05:06:09;;;;;;;3.50;2.10;;;7.50;99.90;;;;;;5011997;28;20177;-39
2023/04/01 05:08:38;;;;;;;3.10;2.07;;;7.60;99.90;;;;;;4991930;28;20205;-42
2023/04/01 05:11:09;;;;;;;3.87;2.50;;;7.60;99.90;;;;;;4981585;28;20271;-42
2023/04/01 05:13:36;;;;;;;2.27;1.60;;;7.60;99.90;;;;;;4994402;28;20243;-40
2023/04/01 05:16:02;;;;;;;2.57;1.00;;;7.60;99.90;;;;;;4993936;28;20175;-37
2023/04/01 05:18:28;;;;;;;3.23;1.07;;;7.70;99.90;;;;;;4993668;28;20200;-40
2023/04/01 05:20:54;;;;;;;2.50;0.80;;;7.70;99.90;;;;;;4999881;28;20252;-40
2023/04/01 05:23:22;;;;;;;1.40;1.00;;;7.80;99.90;;;;;;4984073;28;20195;-41
2023/04/01 05:25:49;;;;;;;1.67;0.93;;;7.80;99.90;;;;;;4982086;28;20196;-40
2023/04/01 05:28:16;;;;;;;3.07;1.07;;;7.80;99.90;;;;;;4983087;28;20634;-42
2023/04/01 05:30:45;;;;;;;1.70;0.63;;;7.80;99.90;;;;;;4968326;28;20183;-41
2023/04/01 05:33:22;;;;;;;0.93;0.57;;;7.90;99.90;;;;;;4970743;28;20172;-41
2023/04/01 05:35:48;;;;;;;1.77;0.70;;;7.90;99.90;;;;;;4983285;28;20172;-41
2023/04/01 05:38:14;;;;;;;0.80;0.80;;;7.90;99.90;;;;;;4975630;28;20194;-43
2023/04/01 05:40:40;;;;;;;2.10;1.27;;;7.90;99.90;;;;;;4984276;28;20190;-43
2023/04/01 05:43:06;;;;;;;1.20;1.10;;;7.90;99.90;;;;;;4993496;28;20186;-40
2023/04/01 05:45:32;;;;;;;1.67;0.97;;;7.90;99.90;;;;;;4991275;28;20190;-39
2023/04/01 05:48:18;;;;;;;1.07;0.80;;;7.90;99.90;;;;;;4986249;28;20222;-41
2023/04/01 05:50:44;;;;;;;1.57;0.70;;;7.90;99.90;;;;;;4983496;28;20189;-42
2023/04/01 05:53:11;;;;;;;2.37;1.10;;;7.80;99.90;;;;;;5002186;28;20178;-41
2023/04/01 05:55:38;;;;;;;1.37;0.70;;;7.90;99.90;;;;;;4978088;28;20176;-40
2023/04/01 05:58:04;;;;;;;2.27;1.00;;;7.80;99.90;;;;;;4993468;28;20202;-40
2023/04/01 06:00:31;;;;;;;0.97;0.87;;;7.90;99.90;;;;;;4987541;28;20184;-42
2023/04/01 06:02:59;;;;;;;2.23;1.50;;;7.90;99.90;;;;;;4989624;28;20187;-41
2023/04/01 06:05:29;;;;;;;3.57;1.30;;;7.90;99.90;;;;;;4997791;28;20190;-40
2023/04/01 06:08:09;;;;;;;2.07;1.60;;;7.90;99.90;;;;;;4996975;28;20207;-42
2023/04/01 06:11:08;;;;;;;2.23;1.40;;;7.90;99.90;;;;;;4999401;28;20183;-40
2023/04/01 06:14:05;;;;;;;3.70;1.57;;;8.00;99.90;;;;;;4991604;28;20262;-41
2023/04/01 06:16:58;;;;;;;2.27;1.50;;;8.00;99.90;;;;;;4987151;28;20179;-38
2023/04/01 06:19:41;;;;;;;3.37;1.33;;;8.00;99.90;;;;;;4990981;28;20182;-39
2023/04/01 06:22:22;;;;;;;1.30;1.00;;;8.00;99.90;;;;;;4994836;28;20208;-39
2023/04/01 06:25:05;;;;;;;2.17;0.80;;;8.00;99.90;;;;;;4992276;28;20183;-43
2023/04/01 06:28:02;;;;;;;3.33;1.77;;;8.10;99.90;;;;;;4996489;28;20212;-44
2023/04/01 06:30:43;;;;;;;2.30;1.60;;;8.10;99.90;;;;;;4996681;28;20172;-43
2023/04/01 06:33:31;;;;;;;2.20;1.40;;;8.10;99.90;;;;;;4979348;28;20722;-37
2023/04/01 06:36:16;;;;;;;3.97;1.70;;;8.20;99.90;;;;;;4978961;28;20187;-40
2023/04/01 06:39:05;;;;;;;3.43;1.87;;;8.20;99.90;;;;;;4996223;28;20215;-43
2023/04/01 06:41:49;;;;;;;2.47;1.30;;;8.30;99.90;;;;;;4988832;28;20190;-44
2023/04/01 06:44:42;;;;;;;1.63;1.10;;;8.30;99.90;;;;;;5024519;28;20183;-44
2023/04/01 06:47:38;;;;;;;1.53;0.80;;;8.40;99.90;;;;;;5017502;28;20210;-40
2023/04/01 06:50:25;;;;;;;3.07;0.80;;;8.40;99.90;;;;;;5001750;28;20189;-41
2023/04/01 07:57:59;;;;;;;3.33;1.00;;;9.00;99.90;;;;;;4995275;28;20215;-42
2023/04/01 08:00:42;;;;;;;1.47;0.90;;;9.10;99.90;;;;;;5004712;28;20641;-43
2023/04/01 08:03:51;;;;;;;2.80;1.13;;;9.10;99.90;;;;;;4991643;28;20184;-42
2023/04/01 08:06:34;;;;;;;2.27;1.10;;;9.10;99.90;;;;;;4999794;28;20184;-42
2023/04/01 08:09:46;;;;;;;1.87;0.97;;;9.10;99.90;;;;;;5015271;28;20225;-42
2023/04/01 08:12:51;;;;;;;2.47;1.23;;;9.20;99.90;;;;;;4979485;28;20191;-40
2023/04/01 08:15:42;;;;;;;1.57;1.10;;;9.20;99.90;;;;;;4987569;28;20190;-42
2023/04/01 08:18:33;;;;;;;1.57;0.90;;;9.30;99.90;;;;;;4995448;28;20218;-42
2023/04/01 08:21:03;;;;;;;2.70;1.00;;;9.20;99.90;;;;;;4989900;28;20184;-42
2023/04/01 08:23:37;;;;;;;2.00;1.40;;;9.30;99.90;;;;;;5000098;28;20184;-41
2023/04/01 08:26:31;;;;;;;1.80;0.87;;;9.30;99.90;;;;;;4985850;28;20179;-43
2023/04/01 08:29:17;;;;;;;1.73;0.80;;;9.30;99.90;;;;;;5011200;28;20223;-43
2023/04/01 08:31:58;;;;;;;2.70;1.00;;;9.30;99.90;;;;;;4992962;28;20195;-38
2023/04/01 08:34:43;;;;;;;3.23;1.70;;;9.30;99.90;;;;;;4966803;28;20273;-41
2023/04/01 08:37:24;;;;;;;1.50;1.10;;;9.30;99.90;;;;;;4997069;28;20202;-43
2023/04/01 08:40:22;;;;;;;2.37;1.30;;;9.30;99.90;;;;;;4996171;28;20186;-42
2023/04/01 08:43:16;;;;;;;1.60;0.80;;;9.20;99.90;;;;;;5003801;28;20167;-41
2023/04/01 08:46:15;;;;;;;1.17;0.73;;;9.30;99.90;;;;;;4991965;28;20184;-43
2023/04/01 08:49:13;;;;;;;2.10;1.00;;;9.30;99.90;;;;;;4991143;28;20231;-40
2023/04/01 08:52:07;;;;;;;0.73;0.63;;;9.30;99.90;;;;;;4993213;28;20180;-39
2023/04/01 08:54:48;;;;;;;2.13;1.10;;;9.30;99.90;;;;;;4991187;28;20188;-42
2023/04/01 08:57:39;;;;;;;1.60;1.10;;;9.40;99.90;;;;;;4997553;28;20191;-41
2023/04/01 09:00:53;;;;;;;1.60;0.70;;;9.40;99.90;;;;;;5001910;28;20287;-44
2023/04/01 09:04:17;;;;;;;2.10;0.67;;;9.40;99.90;;;;;;5000938;28;20179;-43
2023/04/01 09:07:07;;;;;;;0.87;0.80;;;9.30;99.90;;;;;;5002332;28;20187;-44
2023/04/01 09:10:03;;;;;;;1.10;0.83;;;9.30;99.90;;;;;;4978395;28;20216;-44
2023/04/01 09:12:45;;;;;;;1.37;0.73;;;9.30;99.90;;;;;;4980188;28;20279;-43
2023/04/01 09:15:30;;;;;;;1.50;1.00;;;9.40;99.90;;;;;;4976039;28;20180;-43
2023/04/01 09:18:11;;;;;;;1.67;0.80;;;9.40;99.90;;;;;;4990863;28;20208;-44
2023/04/01 09:21:16;;;;;;;0.77;0.60;;;9.60;99.90;;;;;;4974751;28;20215;-41
2023/04/01 09:23:54;;;;;;;0.60;0.60;;;9.70;99.90;;;;;;5057079;23;20282;-37
2023/04/01 09:26:43;;;;;;;1.20;0.57;;;9.70;99.90;;;;;;5028986;28;20588;-39
2023/04/01 09:29:30;;;;;;;1.00;0.60;;;9.70;99.90;;;;;;5020012;28;20245;-36
2023/04/01 09:32:10;;;;;;;1.10;0.90;;;9.70;99.90;;;;;;5028040;28;20183;-37
2023/04/01 09:34:58;;;;;;;0.73;0.73;;;9.70;99.90;;;;;;4975221;28;20660;-37
2023/04/01 09:37:42;;;;;;;0.63;0.63;;;9.70;99.90;;;;;;5010044;28;20176;-38
2023/04/01 09:40:37;;;;;;;1.53;1.23;;;9.70;99.90;;;;;;4983529;28;20187;-38
2023/04/01 09:43:27;;;;;;;0.50;0.50;;;9.80;99.90;;;;;;5003952;28;20195;-40
2023/04/01 09:46:27;;;;;;;0.90;0.70;;;9.80;99.90;;;;;;4993138;28;20203;-36
2023/04/01 09:49:00;;;;;;;0.70;0.60;;;9.90;99.90;;;;;;5000479;28;20330;-39
2023/04/01 09:51:58;;;;;;;0.83;0.50;;;9.90;99.90;;;;;;4981484;28;20171;-37
2023/04/01 09:55:02;;;;;;;0.60;0.60;;;9.90;99.90;;;;;;5003254;28;20178;-36
2023/04/01 09:57:45;;;;;;;0.70;0.70;;;10.00;99.90;;;;;;4997894;28;20186;-38
2023/04/01 10:00:54;;;;;;;1.53;1.17;;;10.00;99.90;;;;;;4977736;28;20233;-43
2023/04/01 10:03:30;;;;;;;1.17;0.80;;;9.90;99.90;;;;;;4998022;28;20640;-38
2023/04/01 10:06:27;;;;;;;1.70;0.90;;;9.70;99.90;;;;;;4977477;28;20225;-38
2023/04/01 10:09:11;;;;;;;1.10;1.00;;;9.60;99.90;;;;;;4987664;28;20208;-41
2023/04/01 10:12:21;;;;;;;1.03;0.80;;;9.50;99.90;;;;;;4989466;28;20176;-37
2023/04/01 10:15:08;;;;;;;2.27;1.30;;;9.50;99.90;;;;;;4955760;28;20188;-36
2023/04/01 10:17:34;;;;;;;1.70;1.00;;;9.50;99.90;;;;;;4989543;28;20175;-37
2023/04/01 10:20:36;;;;;;;1.27;0.83;;;9.50;99.90;;;;;;4984537;28;20179;-37
2023/04/01 10:23:21;;;;;;;1.87;1.10;;;9.40;99.90;;;;;;4993076;28;20215;-37
2023/04/01 10:26:28;;;;;;;1.90;1.17;;;9.40;99.90;;;;;;4974387;28;20176;-37
2023/04/01 10:29:45;;;;;;;2.27;1.47;;;9.50;99.90;;;;;;4973943;28;20291;-37
2023/04/01 10:32:41;;;;;;;2.23;1.40;;;9.50;99.90;;;;;;4957001;28;20184;-37
2023/04/01 10:35:21;;;;;;;1.67;1.23;;;9.60;99.90;;;;;;4958978;28;20206;-38
2023/04/01 10:38:05;;;;;;;1.07;0.90;;;9.60;99.90;;;;;;4958253;28;20203;-41
2023/04/01 10:41:10;;;;;;;0.90;0.90;;;9.60;99.90;;;;;;4972324;28;20187;-40
2023/04/01 10:44:24;;;;;;;0.60;0.60;;;9.60;99.90;;;;;;4931895;28;20204;-37
2023/04/01 10:47:18;;;;;;;1.33;0.80;;;9.70;99.90;;;;;;4946930;28;20189;-36
2023/04/01 10:50:07;;;;;;;1.57;0.90;;;9.70;99.90;;;;;;4988593;28;20208;-37
2023/04/01 10:53:11;;;;;;;1.70;0.80;;;9.70;99.90;;;;;;4962568;28;20226;-36
2023/04/01 10:56:17;;;;;;;1.33;0.60;;;9.80;99.90;;;;;;4967774;28;20195;-39
2023/04/01 10:59:28;;;;;;;1.40;0.40;;;9.90;99.90;;;;;;4981913;28;20223;-40
2023/04/01 11:02:22;;;;;;;0.50;0.50;;;9.90;99.90;;;;;;4984939;28;20213;-39
2023/04/01 11:05:13;;;;;;;1.00;0.60;;;10.00;99.90;;;;;;4988798;28;20194;-37
2023/04/01 11:08:23;;;;;;;1.33;0.60;;;10.10;99.90;;;;;;4952418;28;20333;-38
2023/04/01 11:10:49;;;;;;;0.50;0.50;;;10.20;99.90;;;;;;4987125;28;20195;-37
2023/04/01 11:13:51;;;;;;;0.40;0.40;;;10.30;99.90;;;;;;4977651;28;20246;-39
2023/04/01 11:16:25;;;;;;;1.13;0.50;;;10.20;99.90;;;;;;4976706;28;20199;-37
2023/04/01 11:19:12;;;;;;;0.60;0.50;;;10.20;99.90;;;;;;4959131;28;20200;-37
2023/04/01 11:21:49;;;;;;;2.20;0.60;;;10.20;99.90;;;;;;4943432;28;20581;-36
2023/04/01 11:24:17;;;;;;;1.83;0.70;;;10.10;99.90;;;;;;4975950;28;20212;-37
2023/04/01 11:27:27;;;;;;;0.67;0.67;;;10.10;99.90;;;;;;4990864;28;20183;-38
2023/04/01 11:30:20;;;;;;;0.80;0.60;;;10.20;99.90;;;;;;4977598;28;20191;-37
2023/04/01 11:33:05;;;;;;;0.90;0.70;;;10.10;99.90;;;;;;4995987;28;20199;-38
2023/04/01 11:35:44;;;;;;;2.73;1.00;;;10.20;99.90;;;;;;4995450;28;20210;-40
2023/04/01 11:39:00;;;;;;;1.07;0.80;;;10.30;99.90;;;;;;4995712;28;20179;-37
2023/04/01 11:42:12;;;;;;;2.27;0.90;;;10.30;99.90;;;;;;4959672;28;20184;-37
2023/04/01 11:45:11;;;;;;;0.53;0.53;;;10.30;99.90;;;;;;4998535;28;20238;-36
2023/04/01 11:48:05;;;;;;;1.10;1.00;;;10.20;99.90;;;;;;5000866;28;20176;-37
2023/04/01 11:50:31;;;;;;;1.03;0.87;;;10.30;99.90;;;;;;4966195;28;20191;-37
2023/04/01 11:53:06;;;;;;;1.50;1.37;;;10.30;99.90;;;;;;4991662;28;20200;-39
2023/04/01 11:55:55;;;;;;;0.67;0.67;;;10.40;99.90;;;;;;4991964;28;20188;-36
2023/04/01 11:58:42;;;;;;;0.60;0.60;;;10.30;99.90;;;;;;5002722;28;20180;-36
2023/04/01 12:01:30;;;;;;;1.73;1.30;;;10.40;99.90;;;;;;4987006;28;20678;-36
2023/04/01 12:04:27;;;;;;;1.03;0.60;;;10.40;99.90;;;;;;5000258;28;20212;-38
2023/04/01 12:06:56;;;;;;;1.17;0.90;;;10.40;99.90;;;;;;4992386;28;20175;-37
2023/04/01 12:09:41;;;;;;;0.80;0.63;;;10.40;99.90;;;;;;4999473;28;20211;-36
2023/04/01 12:12:42;;;;;;;2.63;0.80;;;10.30;99.90;;;;;;4991165;28;20245;-36
2023/04/01 12:15:21;;;;;;;0.80;0.60;;;10.30;99.90;;;;;;4996371;28;20184;-38
2023/04/01 12:17:47;;;;;;;0.87;0.50;;;10.30;99.90;;;;;;5001528;28;20199;-38
2023/04/01 12:20:12;;;;;;;0.73;0.73;;;10.30;99.90;;;;;;5010614;28;20184;-37
2023/04/01 12:22:59;;;;;;;1.23;0.67;;;10.40;99.90;;;;;;5004172;28;20755;-37
2023/04/01 12:25:58;;;;;;;1.03;0.77;;;10.40;99.90;;;;;;4983294;28;20351;-37
2023/04/01 12:28:46;;;;;;;0.63;0.50;;;10.40;99.90;;;;;;5000836;28;20204;-37
2023/04/01 12:31:34;;;;;;;1.03;0.60;;;10.30;99.90;;;;;;4993171;28;20274;-38
2023/04/01 12:34:39;;;;;;;0.60;0.50;;;10.20;99.90;;;;;;5012546;28;20236;-41
2023/04/01 12:37:49;;;;;;;1.20;0.50;;;10.20;99.90;;;;;;5012887;28;20235;-37
2023/04/01 12:40:51;;;;;;;0.50;0.50;;;10.30;99.90;;;;;;4981164;28;20206;-36
2023/04/01 12:43:46;;;;;;;0.57;0.57;;;10.30;99.90;;;;;;4984246;28;20234;-37
2023/04/01 12:46:34;;;;;;;0.77;0.50;;;10.40;99.90;;;;;;4956311;28;20196;-36
2023/04/01 12:49:19;;;;;;;0.60;0.60;;;10.50;99.90;;;;;;4993699;28;20192;-36
2023/04/01 12:52:00;;;;;;;1.87;0.70;;;10.50;99.90;;;;;;4983892;28;20206;-37
2023/04/01 12:54:47;;;;;;;1.13;0.87;;;10.50;99.90;;;;;;4996520;28;20171;-37
2023/04/01 12:57:43;;;;;;;0.50;0.50;;;10.60;99.90;;;;;;4978680;28;20187;-40
2023/04/01 13:00:53;;;;;;;0.60;0.60;;;10.40;99.90;;;;;;4993712;28;20172;-40
2023/04/01 13:03:51;;;;;;;0.87;0.60;;;10.50;99.90;;;;;;4989459;28;20252;-37
2023/04/01 13:06:33;;;;;;;0.83;0.83;;;10.50;99.90;;;;;;4996205;28;20171;-37
2023/04/01 13:09:21;;;;;;;1.00;0.80;;;10.60;99.90;;;;;;4996978;28;20234;-40
2023/04/01 13:11:50;;;;;;;1.60;0.77;;;10.90;99.90;;;;;;4993033;28;20263;-39
2023/04/01 13:14:24;;;;;;;0.70;0.63;;;11.10;99.90;;;;;;4976333;28;20196;-40
2023/04/01 13:17:06;;;;;;;0.60;0.50;;;11.30;99.90;;;;;;4996408;28;20267;-41
2023/04/01 13:19:53;;;;;;;1.23;0.80;;;11.30;99.90;;;;;;4996096;28;20237;-39
2023/04/01 13:22:56;;;;;;;1.10;0.60;;;11.20;99.90;;;;;;4979452;28;20199;-42
2023/04/01 13:25:28;;;;;;;1.37;0.50;;;11.10;99.90;;;;;;4996118;28;20190;-40
2023/04/01 13:28:07;;;;;;;1.63;0.70;;;11.10;99.90;;;;;;4986983;28;20208;-40
2023/04/01 13:31:14;;;;;;;0.70;0.70;;;11.00;99.90;;;;;;4995054;28;20206;-41
2023/04/01 13:33:55;;;;;;;1.47;0.70;;;11.00;99.90;;;;;;5006843;28;20287;-40
2023/04/01 13:36:32;;;;;;;1.33;1.20;;;10.90;99.90;;;;;;4990271;28;20187;-45
2023/04/01 13:39:01;;;;;;;1.10;0.70;;;10.80;99.90;;;;;;5002160;28;20183;-42
2023/04/01 13:41:42;;;;;;;0.53;0.53;;;10.90;99.90;;;;;;4984184;28;20198;-37
2023/04/01 13:44:20;;;;;;;0.60;0.60;;;10.90;99.90;;;;;;4985254;28;20202;-38
2023/04/01 13:47:08;;;;;;;0.70;0.70;;;10.90;99.90;;;;;;4975725;28;20184;-38
2023/04/01 13:49:43;;;;;;;1.20;0.97;;;10.90;99.90;;;;;;4965771;28;20203;-37
2023/04/01 13:52:16;;;;;;;2.27;0.93;;;10.90;99.90;;;;;;4993087;28;20627;-38
2023/04/01 13:54:51;;;;;;;1.50;0.87;;;10.90;99.90;;;;;;4990875;28;20188;-37
2023/04/01 13:57:37;;;;;;;0.77;0.70;;;10.90;99.90;;;;;;4992320;28;20184;-36
2023/04/01 14:00:18;;;;;;;1.73;0.80;;;10.90;99.90;;;;;;4974604;28;20213;-40
2023/04/01 14:02:57;;;;;;;1.83;0.90;;;10.90;99.90;;;;;;4975276;28;20207;-37
2023/04/01 14:05:52;;;;;;;1.73;0.90;;;11.00;99.90;;;;;;5010273;28;20180;-38
2023/04/01 14:09:02;;;;;;;0.60;0.60;;;11.00;99.90;;;;;;5005910;28;20894;-37
2023/04/01 14:11:37;;;;;;;1.20;0.70;;;11.00;99.90;;;;;;4991440;28;20182;-38
2023/04/01 14:14:24;;;;;;;3.17;1.10;;;10.90;99.90;;;;;;4978814;28;20193;-39
2023/04/01 14:17:11;;;;;;;3.30;1.33;;;10.70;99.90;;;;;;4985258;28;20175;-39
2023/04/01 14:20:02;;;;;;;1.10;0.70;;;10.70;99.90;;;;;;4988028;28;20195;-39
2023/04/01 14:22:52;;;;;;;1.17;0.87;;;10.70;99.90;;;;;;4972423;28;20244;-39
2023/04/01 14:26:01;;;;;;;2.57;2.00;;;10.80;99.90;;;;;;4990614;28;20189;-39
2023/04/01 14:28:30;;;;;;;2.13;1.30;;;10.90;99.90;;;;;;4998775;28;20220;-38
2023/04/01 14:31:34;;;;;;;1.57;0.70;;;10.90;99.90;;;;;;4993203;28;20656;-37
2023/04/01 14:34:23;;;;;;;1.63;0.80;;;10.90;99.90;;;;;;5001145;28;20221;-36
2023/04/01 14:37:03;;;;;;;1.20;0.80;;;10.90;99.90;;;;;;4979089;28;20188;-39
2023/04/01 14:39:50;;;;;;;1.10;0.90;;;10.80;99.90;;;;;;4997356;28;20199;-39
2023/04/01 14:42:35;;;;;;;1.13;0.53;;;10.80;99.90;;;;;;4995369;28;20208;-39
2023/04/01 14:45:38;;;;;;;1.90;0.80;;;10.80;99.90;;;;;;5011171;28;20188;-39
2023/04/01 14:48:27;;;;;;;1.03;0.57;;;10.70;99.90;;;;;;4995769;28;20209;-39
2023/04/01 14:51:04;;;;;;;0.80;0.70;;;10.80;99.90;;;;;;4982905;28;20204;-37
2023/04/01 14:53:38;;;;;;;2.40;0.90;;;10.70;99.90;;;;;;4977571;28;20215;-37
2023/04/01 14:56:05;;;;;;;1.00;0.70;;;10.70;99.90;;;;;;4961885;28;20207;-37
2023/04/01 14:58:50;;;;;;;2.30;1.10;;;10.70;99.90;;;;;;4993396;28;20191;-37
2023/04/01 15:01:42;;;;;;;1.53;1.00;;;10.80;99.90;;;;;;4987222;28;20274;-38
2023/04/01 15:04:41;;;;;;;0.60;0.60;;;10.80;99.90;;;;;;4977493;28;20230;-37
2023/04/01 15:07:24;;;;;;;1.40;0.70;;;10.70;99.90;;;;;;5001391;28;20299;-37